sensor_id;sensor_type;location;lat;lon;timestamp;temperature;humidity
75819;DHT22;64453;51.944;9.796;2023-05-10T00:02:12;19.20;41.90
75819;DHT22;64453;51.944;9.796;2023-05-10T00:04:39;19.40;41.50
75819;DHT22;64453;51.944;9.796;2023-05-10T00:07:07;19.20;40.70
75819;DHT22;64453;51.944;9.796;2023-05-10T00:09:35;19.30;41.80
75819;DHT22;64453;51.944;9.796;2023-05-10T00:12:02;19.30;41.70
75819;DHT22;64453;51.944;9.796;2023-05-10T00:14:30;19.30;41.20
75819;DHT22;64453;51.944;9.796;2023-05-10T00:16:59;19.20;41.10
75819;DHT22;64453;51.944;9.796;2023-05-10T00:19:26;18.90;42.10
75819;DHT22;64453;51.944;9.796;2023-05-10T00:21:53;18.60;41.80
75819;DHT22;64453;51.944;9.796;2023-05-10T00:24:20;18.50;42.70
75819;DHT22;64453;51.944;9.796;2023-05-10T00:26:48;17.90;43.60
75819;DHT22;64453;51.944;9.796;2023-05-10T00:29:15;18.30;44.50
75819;DHT22;64453;51.944;9.796;2023-05-10T00:31:42;18.60;45.00
75819;DHT22;64453;51.944;9.796;2023-05-10T00:34:10;18.40;44.50
75819;DHT22;64453;51.944;9.796;2023-05-10T00:36:38;18.50;45.00
75819;DHT22;64453;51.944;9.796;2023-05-10T00:39:06;18.20;44.60
75819;DHT22;64453;51.944;9.796;2023-05-10T00:41:33;18.00;44.70
75819;DHT22;64453;51.944;9.796;2023-05-10T00:44:00;17.80;45.00
75819;DHT22;64453;51.944;9.796;2023-05-10T00:46:28;18.40;45.00
75819;DHT22;64453;51.944;9.796;2023-05-10T00:48:56;18.60;45.70
75819;DHT22;64453;51.944;9.796;2023-05-10T00:51:26;18.40;44.60
75819;DHT22;64453;51.944;9.796;2023-05-10T00:53:54;18.30;44.90
75819;DHT22;64453;51.944;9.796;2023-05-10T00:56:21;18.40;44.30
75819;DHT22;64453;51.944;9.796;2023-05-10T00:58:50;18.50;44.80
75819;DHT22;64453;51.944;9.796;2023-05-10T01:01:17;18.40;42.50
75819;DHT22;64453;51.944;9.796;2023-05-10T01:03:44;18.70;41.30
75819;DHT22;64453;51.944;9.796;2023-05-10T01:06:12;18.80;40.00
75819;DHT22;64453;51.944;9.796;2023-05-10T01:08:41;18.70;39.90
75819;DHT22;64453;51.944;9.796;2023-05-10T01:11:09;19.10;39.80
75819;DHT22;64453;51.944;9.796;2023-05-10T01:13:38;19.10;39.80
75819;DHT22;64453;51.944;9.796;2023-05-10T01:16:06;19.30;41.10
75819;DHT22;64453;51.944;9.796;2023-05-10T01:18:36;19.10;39.80
75819;DHT22;64453;51.944;9.796;2023-05-10T01:21:14;19.30;40.30
75819;DHT22;64453;51.944;9.796;2023-05-10T01:24:09;19.20;39.90
75819;DHT22;64453;51.944;9.796;2023-05-10T01:27:17;19.10;40.50
75819;DHT22;64453;51.944;9.796;2023-05-10T01:33:10;19.30;40.00
75819;DHT22;64453;51.944;9.796;2023-05-10T01:35:45;19.40;39.70
75819;DHT22;64453;51.944;9.796;2023-05-10T01:38:18;19.40;38.70
75819;DHT22;64453;51.944;9.796;2023-05-10T01:40:54;19.30;39.30
75819;DHT22;64453;51.944;9.796;2023-05-10T01:43:28;19.50;39.40
75819;DHT22;64453;51.944;9.796;2023-05-10T01:46:00;19.50;39.20
75819;DHT22;64453;51.944;9.796;2023-05-10T01:48:38;19.50;39.20
75819;DHT22;64453;51.944;9.796;2023-05-10T01:51:12;19.50;39.30
75819;DHT22;64453;51.944;9.796;2023-05-10T01:53:42;19.50;39.00
75819;DHT22;64453;51.944;9.796;2023-05-10T01:56:12;19.60;39.50
75819;DHT22;64453;51.944;9.796;2023-05-10T01:58:43;19.50;39.30
75819;DHT22;64453;51.944;9.796;2023-05-10T02:01:12;19.50;39.60
75819;DHT22;64453;51.944;9.796;2023-05-10T02:03:42;19.70;39.20
75819;DHT22;64453;51.944;9.796;2023-05-10T02:06:12;19.60;40.20
75819;DHT22;64453;51.944;9.796;2023-05-10T02:08:41;19.50;41.00
75819;DHT22;64453;51.944;9.796;2023-05-10T02:11:13;19.50;40.60
75819;DHT22;64453;51.944;9.796;2023-05-10T02:13:42;19.50;40.80
75819;DHT22;64453;51.944;9.796;2023-05-10T02:16:11;19.50;41.40
75819;DHT22;64453;51.944;9.796;2023-05-10T02:18:41;19.50;41.00
75819;DHT22;64453;51.944;9.796;2023-05-10T02:21:08;19.50;40.90
75819;DHT22;64453;51.944;9.796;2023-05-10T02:23:37;19.50;40.70
75819;DHT22;64453;51.944;9.796;2023-05-10T02:26:05;19.50;40.50
75819;DHT22;64453;51.944;9.796;2023-05-10T02:28:36;19.50;40.30
75819;DHT22;64453;51.944;9.796;2023-05-10T02:31:05;19.50;40.30
75819;DHT22;64453;51.944;9.796;2023-05-10T02:33:34;19.50;40.70
75819;DHT22;64453;51.944;9.796;2023-05-10T02:36:03;19.50;40.40
75819;DHT22;64453;51.944;9.796;2023-05-10T02:38:32;19.50;40.20
75819;DHT22;64453;51.944;9.796;2023-05-10T02:40:59;19.50;40.30
75819;DHT22;64453;51.944;9.796;2023-05-10T02:43:28;19.50;40.70
75819;DHT22;64453;51.944;9.796;2023-05-10T02:45:57;19.50;40.30
75819;DHT22;64453;51.944;9.796;2023-05-10T02:48:24;19.40;40.40
75819;DHT22;64453;51.944;9.796;2023-05-10T02:50:52;19.30;40.90
75819;DHT22;64453;51.944;9.796;2023-05-10T02:53:23;19.20;41.20
75819;DHT22;64453;51.944;9.796;2023-05-10T02:55:58;19.30;41.10
75819;DHT22;64453;51.944;9.796;2023-05-10T02:58:29;19.50;42.00
75819;DHT22;64453;51.944;9.796;2023-05-10T03:00:56;19.40;41.20
75819;DHT22;64453;51.944;9.796;2023-05-10T03:03:23;19.40;41.20
75819;DHT22;64453;51.944;9.796;2023-05-10T03:05:50;19.10;41.60
75819;DHT22;64453;51.944;9.796;2023-05-10T03:08:21;19.20;42.40
75819;DHT22;64453;51.944;9.796;2023-05-10T03:10:55;19.10;42.80
75819;DHT22;64453;51.944;9.796;2023-05-10T03:13:36;19.20;44.20
75819;DHT22;64453;51.944;9.796;2023-05-10T03:16:12;19.30;42.80
75819;DHT22;64453;51.944;9.796;2023-05-10T03:18:44;19.30;45.10
75819;DHT22;64453;51.944;9.796;2023-05-10T03:21:18;19.30;45.10
75819;DHT22;64453;51.944;9.796;2023-05-10T03:23:51;19.20;44.50
75819;DHT22;64453;51.944;9.796;2023-05-10T03:26:22;19.00;42.70
75819;DHT22;64453;51.944;9.796;2023-05-10T03:28:52;18.90;43.00
75819;DHT22;64453;51.944;9.796;2023-05-10T03:31:19;19.10;43.70
75819;DHT22;64453;51.944;9.796;2023-05-10T03:33:47;19.00;42.10
75819;DHT22;64453;51.944;9.796;2023-05-10T03:36:14;19.20;44.10
75819;DHT22;64453;51.944;9.796;2023-05-10T03:38:41;19.30;44.90
75819;DHT22;64453;51.944;9.796;2023-05-10T03:41:10;19.10;44.30
75819;DHT22;64453;51.944;9.796;2023-05-10T03:43:37;18.80;43.60
75819;DHT22;64453;51.944;9.796;2023-05-10T03:46:05;19.00;44.10
75819;DHT22;64453;51.944;9.796;2023-05-10T03:48:33;19.10;43.70
75819;DHT22;64453;51.944;9.796;2023-05-10T03:51:00;19.00;44.10
75819;DHT22;64453;51.944;9.796;2023-05-10T03:53:27;18.90;43.80
75819;DHT22;64453;51.944;9.796;2023-05-10T03:55:54;18.90;44.00
75819;DHT22;64453;51.944;9.796;2023-05-10T03:58:23;18.70;43.90
75819;DHT22;64453;51.944;9.796;2023-05-10T04:00:51;18.60;44.50
75819;DHT22;64453;51.944;9.796;2023-05-10T04:03:18;18.80;44.10
75819;DHT22;64453;51.944;9.796;2023-05-10T04:05:45;18.80;45.10
75819;DHT22;64453;51.944;9.796;2023-05-10T04:08:12;18.90;46.20
75819;DHT22;64453;51.944;9.796;2023-05-10T04:10:40;18.80;46.10
75819;DHT22;64453;51.944;9.796;2023-05-10T04:13:07;18.80;47.00
75819;DHT22;64453;51.944;9.796;2023-05-10T04:15:35;18.50;48.80
75819;DHT22;64453;51.944;9.796;2023-05-10T04:18:02;18.50;49.80
75819;DHT22;64453;51.944;9.796;2023-05-10T04:20:32;18.70;50.20
75819;DHT22;64453;51.944;9.796;2023-05-10T04:22:59;18.70;50.90
75819;DHT22;64453;51.944;9.796;2023-05-10T04:25:27;18.50;50.30
75819;DHT22;64453;51.944;9.796;2023-05-10T04:27:54;18.50;51.00
75819;DHT22;64453;51.944;9.796;2023-05-10T04:30:21;18.50;51.20
75819;DHT22;64453;51.944;9.796;2023-05-10T04:32:50;18.30;52.10
75819;DHT22;64453;51.944;9.796;2023-05-10T04:35:17;18.40;52.80
75819;DHT22;64453;51.944;9.796;2023-05-10T04:37:44;18.50;52.60
75819;DHT22;64453;51.944;9.796;2023-05-10T04:40:12;18.60;51.60
75819;DHT22;64453;51.944;9.796;2023-05-10T04:42:40;18.20;52.30
75819;DHT22;64453;51.944;9.796;2023-05-10T04:45:08;18.40;51.90
75819;DHT22;64453;51.944;9.796;2023-05-10T04:47:36;18.60;51.30
75819;DHT22;64453;51.944;9.796;2023-05-10T04:50:06;18.50;51.90
75819;DHT22;64453;51.944;9.796;2023-05-10T04:52:34;18.10;53.20
75819;DHT22;64453;51.944;9.796;2023-05-10T04:55:01;18.10;53.50
75819;DHT22;64453;51.944;9.796;2023-05-10T04:57:29;18.00;54.00
75819;DHT22;64453;51.944;9.796;2023-05-10T04:59:56;18.30;55.10
75819;DHT22;64453;51.944;9.796;2023-05-10T05:02:23;18.40;54.50
75819;DHT22;64453;51.944;9.796;2023-05-10T05:04:51;18.40;54.10
75819;DHT22;64453;51.944;9.796;2023-05-10T05:07:19;18.40;54.10
75819;DHT22;64453;51.944;9.796;2023-05-10T05:09:46;18.30;53.00
75819;DHT22;64453;51.944;9.796;2023-05-10T05:12:20;18.50;53.50
75819;DHT22;64453;51.944;9.796;2023-05-10T05:14:47;18.60;53.90
75819;DHT22;64453;51.944;9.796;2023-05-10T05:17:14;18.20;52.80
75819;DHT22;64453;51.944;9.796;2023-05-10T05:19:41;18.30;54.10
75819;DHT22;64453;51.944;9.796;2023-05-10T05:22:08;18.50;55.30
75819;DHT22;64453;51.944;9.796;2023-05-10T05:24:37;18.60;54.20
75819;DHT22;64453;51.944;9.796;2023-05-10T05:27:04;18.20;53.70
75819;DHT22;64453;51.944;9.796;2023-05-10T05:29:32;18.10;54.90
75819;DHT22;64453;51.944;9.796;2023-05-10T05:31:59;18.20;54.80
75819;DHT22;64453;51.944;9.796;2023-05-10T05:34:27;18.40;55.00
75819;DHT22;64453;51.944;9.796;2023-05-10T05:36:55;18.40;54.90
75819;DHT22;64453;51.944;9.796;2023-05-10T05:39:23;18.50;55.90
75819;DHT22;64453;51.944;9.796;2023-05-10T05:41:51;18.60;55.90
75819;DHT22;64453;51.944;9.796;2023-05-10T05:44:18;18.60;55.80
75819;DHT22;64453;51.944;9.796;2023-05-10T05:46:45;18.70;55.40
75819;DHT22;64453;51.944;9.796;2023-05-10T05:49:13;18.60;55.80
75819;DHT22;64453;51.944;9.796;2023-05-10T05:51:40;18.70;56.10
75819;DHT22;64453;51.944;9.796;2023-05-10T05:54:07;18.70;56.40
75819;DHT22;64453;51.944;9.796;2023-05-10T05:56:35;18.80;56.30
75819;DHT22;64453;51.944;9.796;2023-05-10T05:59:04;18.90;56.30
75819;DHT22;64453;51.944;9.796;2023-05-10T06:01:31;18.80;56.40
75819;DHT22;64453;51.944;9.796;2023-05-10T06:03:59;18.80;56.80
75819;DHT22;64453;51.944;9.796;2023-05-10T06:06:26;18.80;56.40
75819;DHT22;64453;51.944;9.796;2023-05-10T06:08:53;18.50;56.40
75819;DHT22;64453;51.944;9.796;2023-05-10T06:11:20;18.60;56.90
75819;DHT22;64453;51.944;9.796;2023-05-10T06:13:48;18.70;57.00
75819;DHT22;64453;51.944;9.796;2023-05-10T06:16:17;18.60;56.70
75819;DHT22;64453;51.944;9.796;2023-05-10T06:18:44;18.60;56.80
75819;DHT22;64453;51.944;9.796;2023-05-10T06:21:11;18.60;56.80
75819;DHT22;64453;51.944;9.796;2023-05-10T06:23:38;18.70;57.10
75819;DHT22;64453;51.944;9.796;2023-05-10T06:26:05;18.70;57.20
75819;DHT22;64453;51.944;9.796;2023-05-10T06:28:32;18.80;56.90
75819;DHT22;64453;51.944;9.796;2023-05-10T06:30:59;18.70;56.70
75819;DHT22;64453;51.944;9.796;2023-05-10T06:33:28;18.50;57.40
75819;DHT22;64453;51.944;9.796;2023-05-10T06:35:55;18.50;57.30
75819;DHT22;64453;51.944;9.796;2023-05-10T06:38:22;18.60;57.40
75819;DHT22;64453;51.944;9.796;2023-05-10T06:40:49;18.70;57.60
75819;DHT22;64453;51.944;9.796;2023-05-10T06:43:17;18.60;57.80
75819;DHT22;64453;51.944;9.796;2023-05-10T06:45:44;18.70;57.80
75819;DHT22;64453;51.944;9.796;2023-05-10T06:48:11;18.70;58.30
75819;DHT22;64453;51.944;9.796;2023-05-10T06:50:40;18.60;58.20
75819;DHT22;64453;51.944;9.796;2023-05-10T06:53:08;18.60;58.90
75819;DHT22;64453;51.944;9.796;2023-05-10T06:55:35;18.70;58.90
75819;DHT22;64453;51.944;9.796;2023-05-10T06:58:02;18.80;58.70
75819;DHT22;64453;51.944;9.796;2023-05-10T07:00:29;18.70;58.80
75819;DHT22;64453;51.944;9.796;2023-05-10T07:02:56;18.80;59.20
75819;DHT22;64453;51.944;9.796;2023-05-10T07:05:23;18.90;59.00
75819;DHT22;64453;51.944;9.796;2023-05-10T07:07:54;18.70;59.70
75819;DHT22;64453;51.944;9.796;2023-05-10T07:10:21;18.70;60.00
75819;DHT22;64453;51.944;9.796;2023-05-10T07:12:48;18.70;60.20
75819;DHT22;64453;51.944;9.796;2023-05-10T07:15:15;18.80;61.00
75819;DHT22;64453;51.944;9.796;2023-05-10T07:17:43;18.80;61.20
75819;DHT22;64453;51.944;9.796;2023-05-10T07:20:11;18.70;61.40
75819;DHT22;64453;51.944;9.796;2023-05-10T07:22:39;18.70;61.70
75819;DHT22;64453;51.944;9.796;2023-05-10T07:25:08;18.70;62.30
75819;DHT22;64453;51.944;9.796;2023-05-10T07:27:35;18.70;62.50
75819;DHT22;64453;51.944;9.796;2023-05-10T07:30:02;18.80;63.30
75819;DHT22;64453;51.944;9.796;2023-05-10T07:32:30;18.90;65.10
75819;DHT22;64453;51.944;9.796;2023-05-10T07:34:57;19.00;63.20
75819;DHT22;64453;51.944;9.796;2023-05-10T07:37:25;19.00;63.10
75819;DHT22;64453;51.944;9.796;2023-05-10T07:39:52;19.00;63.20
75819;DHT22;64453;51.944;9.796;2023-05-10T07:42:21;18.90;63.80
75819;DHT22;64453;51.944;9.796;2023-05-10T07:44:48;19.00;63.20
75819;DHT22;64453;51.944;9.796;2023-05-10T07:47:15;19.00;64.20
75819;DHT22;64453;51.944;9.796;2023-05-10T07:49:42;19.10;62.70
75819;DHT22;64453;51.944;9.796;2023-05-10T07:52:09;19.10;63.20
75819;DHT22;64453;51.944;9.796;2023-05-10T07:54:36;18.80;63.60
75819;DHT22;64453;51.944;9.796;2023-05-10T07:57:03;18.90;64.20
75819;DHT22;64453;51.944;9.796;2023-05-10T07:59:32;18.70;63.90
75819;DHT22;64453;51.944;9.796;2023-05-10T08:02:00;18.40;64.60
75819;DHT22;64453;51.944;9.796;2023-05-10T08:04:27;18.30;65.10
75819;DHT22;64453;51.944;9.796;2023-05-10T08:06:54;18.30;65.10
75819;DHT22;64453;51.944;9.796;2023-05-10T08:09:21;18.10;64.30
75819;DHT22;64453;51.944;9.796;2023-05-10T08:11:49;17.80;65.40
75819;DHT22;64453;51.944;9.796;2023-05-10T08:14:16;17.50;66.60
75819;DHT22;64453;51.944;9.796;2023-05-10T08:16:45;17.70;66.80
75819;DHT22;64453;51.944;9.796;2023-05-10T08:19:12;18.00;67.00
75819;DHT22;64453;51.944;9.796;2023-05-10T08:21:39;17.70;65.70
75819;DHT22;64453;51.944;9.796;2023-05-10T08:24:07;17.20;68.70
75819;DHT22;64453;51.944;9.796;2023-05-10T08:26:35;17.80;67.90
75819;DHT22;64453;51.944;9.796;2023-05-10T08:29:02;17.90;67.90
75819;DHT22;64453;51.944;9.796;2023-05-10T08:31:29;17.90;67.90
75819;DHT22;64453;51.944;9.796;2023-05-10T08:33:59;17.80;68.80
75819;DHT22;64453;51.944;9.796;2023-05-10T08:36:26;18.20;67.80
75819;DHT22;64453;51.944;9.796;2023-05-10T08:38:53;18.40;66.30
75819;DHT22;64453;51.944;9.796;2023-05-10T08:41:21;18.20;66.40
75819;DHT22;64453;51.944;9.796;2023-05-10T08:43:50;18.20;67.30
75819;DHT22;64453;51.944;9.796;2023-05-10T08:46:18;18.40;67.40
75819;DHT22;64453;51.944;9.796;2023-05-10T08:48:50;18.50;67.40
75819;DHT22;64453;51.944;9.796;2023-05-10T08:51:22;18.70;66.40
75819;DHT22;64453;51.944;9.796;2023-05-10T08:53:52;18.70;65.60
75819;DHT22;64453;51.944;9.796;2023-05-10T08:56:19;18.50;65.30
75819;DHT22;64453;51.944;9.796;2023-05-10T08:58:47;18.00;66.60
75819;DHT22;64453;51.944;9.796;2023-05-10T09:01:15;18.20;68.30
75819;DHT22;64453;51.944;9.796;2023-05-10T09:03:46;18.30;67.90
75819;DHT22;64453;51.944;9.796;2023-05-10T09:06:13;18.20;67.50
75819;DHT22;64453;51.944;9.796;2023-05-10T09:08:43;17.80;67.80
75819;DHT22;64453;51.944;9.796;2023-05-10T09:11:12;17.50;68.80
75819;DHT22;64453;51.944;9.796;2023-05-10T09:13:39;17.40;70.00
75819;DHT22;64453;51.944;9.796;2023-05-10T09:16:06;17.60;70.10
75819;DHT22;64453;51.944;9.796;2023-05-10T09:18:34;17.80;69.60
75819;DHT22;64453;51.944;9.796;2023-05-10T09:21:01;17.80;69.20
75819;DHT22;64453;51.944;9.796;2023-05-10T09:23:28;18.10;68.30
75819;DHT22;64453;51.944;9.796;2023-05-10T09:26:05;18.00;68.70
75819;DHT22;64453;51.944;9.796;2023-05-10T09:28:32;18.20;67.00
75819;DHT22;64453;51.944;9.796;2023-05-10T09:31:00;18.10;66.90
75819;DHT22;64453;51.944;9.796;2023-05-10T09:33:27;17.80;66.80
75819;DHT22;64453;51.944;9.796;2023-05-10T09:35:55;17.80;69.40
75819;DHT22;64453;51.944;9.796;2023-05-10T09:38:22;18.30;67.50
75819;DHT22;64453;51.944;9.796;2023-05-10T09:40:52;18.60;68.00
75819;DHT22;64453;51.944;9.796;2023-05-10T09:43:22;18.30;66.70
75819;DHT22;64453;51.944;9.796;2023-05-10T09:45:49;17.90;68.30
75819;DHT22;64453;51.944;9.796;2023-05-10T09:48:16;17.90;68.30
75819;DHT22;64453;51.944;9.796;2023-05-10T09:50:43;18.00;69.30
75819;DHT22;64453;51.944;9.796;2023-05-10T09:53:14;18.50;68.10
75819;DHT22;64453;51.944;9.796;2023-05-10T09:55:43;18.50;66.00
75819;DHT22;64453;51.944;9.796;2023-05-10T09:58:12;18.30;65.30
75819;DHT22;64453;51.944;9.796;2023-05-10T10:00:42;18.50;64.90
75819;DHT22;64453;51.944;9.796;2023-05-10T10:03:13;18.20;64.20
75819;DHT22;64453;51.944;9.796;2023-05-10T10:05:41;18.10;65.70
75819;DHT22;64453;51.944;9.796;2023-05-10T10:08:10;18.10;66.70
75819;DHT22;64453;51.944;9.796;2023-05-10T10:10:38;18.20;65.60
75819;DHT22;64453;51.944;9.796;2023-05-10T10:13:05;18.60;63.40
75819;DHT22;64453;51.944;9.796;2023-05-10T10:15:34;18.80;63.90
75819;DHT22;64453;51.944;9.796;2023-05-10T10:18:02;18.80;63.40
75819;DHT22;64453;51.944;9.796;2023-05-10T10:20:30;19.00;63.60
75819;DHT22;64453;51.944;9.796;2023-05-10T10:22:57;18.80;62.30
75819;DHT22;64453;51.944;9.796;2023-05-10T10:25:24;18.70;62.20
75819;DHT22;64453;51.944;9.796;2023-05-10T10:28:03;18.70;64.00
75819;DHT22;64453;51.944;9.796;2023-05-10T10:30:41;18.60;62.90
75819;DHT22;64453;51.944;9.796;2023-05-10T10:36:24;18.30;64.30
75819;DHT22;64453;51.944;9.796;2023-05-10T10:38:59;18.60;66.00
75819;DHT22;64453;51.944;9.796;2023-05-10T10:41:30;18.70;63.30
75819;DHT22;64453;51.944;9.796;2023-05-10T10:44:23;18.90;62.40
75819;DHT22;64453;51.944;9.796;2023-05-10T10:47:28;19.20;63.20
75819;DHT22;64453;51.944;9.796;2023-05-10T10:50:07;19.60;61.50
75819;DHT22;64453;51.944;9.796;2023-05-10T10:52:36;19.80;60.10
75819;DHT22;64453;51.944;9.796;2023-05-10T10:55:05;19.80;60.30
75819;DHT22;64453;51.944;9.796;2023-05-10T10:57:43;19.50;59.50
75819;DHT22;64453;51.944;9.796;2023-05-10T11:00:26;19.90;59.40
75819;DHT22;64453;51.944;9.796;2023-05-10T11:02:56;19.60;58.90
75819;DHT22;64453;51.944;9.796;2023-05-10T11:05:36;19.70;58.40
75819;DHT22;64453;51.944;9.796;2023-05-10T11:08:10;19.50;59.20
75819;DHT22;64453;51.944;9.796;2023-05-10T11:10:53;19.50;59.00
75819;DHT22;64453;51.944;9.796;2023-05-10T11:13:31;19.70;59.20
75819;DHT22;64453;51.944;9.796;2023-05-10T11:16:10;19.70;58.10
75819;DHT22;64453;51.944;9.796;2023-05-10T11:18:39;19.70;58.50
75819;DHT22;64453;51.944;9.796;2023-05-10T11:21:09;19.60;58.50
75819;DHT22;64453;51.944;9.796;2023-05-10T11:23:51;19.70;59.80
75819;DHT22;64453;51.944;9.796;2023-05-10T11:26:21;19.80;59.40
75819;DHT22;64453;51.944;9.796;2023-05-10T11:28:51;20.10;59.70
75819;DHT22;64453;51.944;9.796;2023-05-10T11:31:24;20.10;59.40
75819;DHT22;64453;51.944;9.796;2023-05-10T11:33:53;20.30;60.10
75819;DHT22;64453;51.944;9.796;2023-05-10T11:36:24;20.20;57.10
75819;DHT22;64453;51.944;9.796;2023-05-10T11:38:52;20.20;57.80
75819;DHT22;64453;51.944;9.796;2023-05-10T11:41:20;20.40;58.10
75819;DHT22;64453;51.944;9.796;2023-05-10T11:43:50;20.50;57.80
75819;DHT22;64453;51.944;9.796;2023-05-10T11:46:20;20.50;56.80
75819;DHT22;64453;51.944;9.796;2023-05-10T11:48:49;20.60;56.30
75819;DHT22;64453;51.944;9.796;2023-05-10T11:51:22;20.20;57.90
75819;DHT22;64453;51.944;9.796;2023-05-10T11:53:52;20.20;57.90
75819;DHT22;64453;51.944;9.796;2023-05-10T11:56:20;19.90;59.20
75819;DHT22;64453;51.944;9.796;2023-05-10T11:58:53;19.20;62.40
75819;DHT22;64453;51.944;9.796;2023-05-10T12:01:21;18.60;67.00
75819;DHT22;64453;51.944;9.796;2023-05-10T12:03:50;18.30;69.80
75819;DHT22;64453;51.944;9.796;2023-05-10T12:06:18;19.00;69.00
75819;DHT22;64453;51.944;9.796;2023-05-10T12:08:48;19.10;67.90
75819;DHT22;64453;51.944;9.796;2023-05-10T12:11:18;19.60;67.60
75819;DHT22;64453;51.944;9.796;2023-05-10T12:13:47;19.30;65.30
75819;DHT22;64453;51.944;9.796;2023-05-10T12:16:19;19.30;66.80
75819;DHT22;64453;51.944;9.796;2023-05-10T12:18:48;19.30;68.50
75819;DHT22;64453;51.944;9.796;2023-05-10T12:21:16;19.70;63.80
75819;DHT22;64453;51.944;9.796;2023-05-10T12:23:48;19.80;62.20
75819;DHT22;64453;51.944;9.796;2023-05-10T12:26:17;19.70;63.30
75819;DHT22;64453;51.944;9.796;2023-05-10T12:28:45;20.00;60.80
75819;DHT22;64453;51.944;9.796;2023-05-10T12:31:12;20.20;63.10
75819;DHT22;64453;51.944;9.796;2023-05-10T12:33:41;20.40;62.20
75819;DHT22;64453;51.944;9.796;2023-05-10T12:36:09;20.50;60.00
75819;DHT22;64453;51.944;9.796;2023-05-10T12:38:38;20.60;60.80
75819;DHT22;64453;51.944;9.796;2023-05-10T12:41:10;20.80;61.30
75819;DHT22;64453;51.944;9.796;2023-05-10T12:43:39;20.80;59.40
75819;DHT22;64453;51.944;9.796;2023-05-10T12:46:07;20.60;57.50
75819;DHT22;64453;51.944;9.796;2023-05-10T12:48:35;20.60;58.20
75819;DHT22;64453;51.944;9.796;2023-05-10T12:51:04;20.70;58.80
75819;DHT22;64453;51.944;9.796;2023-05-10T12:53:35;20.70;58.40
75819;DHT22;64453;51.944;9.796;2023-05-10T12:56:02;20.60;57.20
75819;DHT22;64453;51.944;9.796;2023-05-10T12:58:31;20.70;56.60
75819;DHT22;64453;51.944;9.796;2023-05-10T13:00:59;20.80;56.70
75819;DHT22;64453;51.944;9.796;2023-05-10T13:03:26;21.00;58.10
75819;DHT22;64453;51.944;9.796;2023-05-10T13:05:54;21.10;58.80
75819;DHT22;64453;51.944;9.796;2023-05-10T13:08:21;21.20;58.00
75819;DHT22;64453;51.944;9.796;2023-05-10T13:10:48;21.30;57.70
75819;DHT22;64453;51.944;9.796;2023-05-10T13:13:16;21.30;57.80
75819;DHT22;64453;51.944;9.796;2023-05-10T13:15:45;21.30;57.50
75819;DHT22;64453;51.944;9.796;2023-05-10T13:18:12;21.40;57.50
75819;DHT22;64453;51.944;9.796;2023-05-10T13:20:39;21.50;57.90
75819;DHT22;64453;51.944;9.796;2023-05-10T13:23:08;21.40;57.20
75819;DHT22;64453;51.944;9.796;2023-05-10T13:25:35;21.40;57.00
75819;DHT22;64453;51.944;9.796;2023-05-10T13:28:02;21.40;57.10
75819;DHT22;64453;51.944;9.796;2023-05-10T13:30:30;21.50;57.90
75819;DHT22;64453;51.944;9.796;2023-05-10T13:33:04;21.60;57.80
75819;DHT22;64453;51.944;9.796;2023-05-10T13:35:31;21.60;58.30
75819;DHT22;64453;51.944;9.796;2023-05-10T13:37:58;21.70;58.60
75819;DHT22;64453;51.944;9.796;2023-05-10T13:40:26;21.70;56.40
75819;DHT22;64453;51.944;9.796;2023-05-10T13:42:53;21.60;56.60
75819;DHT22;64453;51.944;9.796;2023-05-10T13:45:20;21.70;58.20
75819;DHT22;64453;51.944;9.796;2023-05-10T13:47:47;21.80;58.30
75819;DHT22;64453;51.944;9.796;2023-05-10T13:50:20;21.80;58.50
75819;DHT22;64453;51.944;9.796;2023-05-10T13:52:47;21.80;58.90
75819;DHT22;64453;51.944;9.796;2023-05-10T13:55:15;22.00;59.30
75819;DHT22;64453;51.944;9.796;2023-05-10T13:57:42;22.20;60.20
75819;DHT22;64453;51.944;9.796;2023-05-10T14:00:09;22.30;59.80
75819;DHT22;64453;51.944;9.796;2023-05-10T14:02:37;22.40;59.80
75819;DHT22;64453;51.944;9.796;2023-05-10T14:05:05;22.40;59.00
75819;DHT22;64453;51.944;9.796;2023-05-10T14:07:34;22.40;58.00
75819;DHT22;64453;51.944;9.796;2023-05-10T14:10:01;22.40;57.10
75819;DHT22;64453;51.944;9.796;2023-05-10T14:12:31;22.50;56.50
75819;DHT22;64453;51.944;9.796;2023-05-10T14:14:58;22.40;56.70
75819;DHT22;64453;51.944;9.796;2023-05-10T14:17:25;22.50;56.20
75819;DHT22;64453;51.944;9.796;2023-05-10T14:19:53;22.40;56.80
75819;DHT22;64453;51.944;9.796;2023-05-10T14:22:20;22.50;56.80
75819;DHT22;64453;51.944;9.796;2023-05-10T14:24:49;22.50;56.70
75819;DHT22;64453;51.944;9.796;2023-05-10T14:27:16;22.50;57.60
75819;DHT22;64453;51.944;9.796;2023-05-10T14:29:44;22.50;57.20
75819;DHT22;64453;51.944;9.796;2023-05-10T14:32:11;22.50;56.20
75819;DHT22;64453;51.944;9.796;2023-05-10T14:34:38;22.50;56.30
75819;DHT22;64453;51.944;9.796;2023-05-10T14:37:05;22.60;56.30
75819;DHT22;64453;51.944;9.796;2023-05-10T14:39:33;22.60;56.20
75819;DHT22;64453;51.944;9.796;2023-05-10T14:42:02;22.50;56.00
75819;DHT22;64453;51.944;9.796;2023-05-10T14:44:29;22.60;56.00
75819;DHT22;64453;51.944;9.796;2023-05-10T14:46:57;22.50;56.20
75819;DHT22;64453;51.944;9.796;2023-05-10T14:49:24;22.40;55.90
75819;DHT22;64453;51.944;9.796;2023-05-10T14:51:54;22.50;55.70
75819;DHT22;64453;51.944;9.796;2023-05-10T14:54:22;22.40;55.80
75819;DHT22;64453;51.944;9.796;2023-05-10T14:56:49;22.20;55.10
75819;DHT22;64453;51.944;9.796;2023-05-10T14:59:17;22.20;55.10
75819;DHT22;64453;51.944;9.796;2023-05-10T15:01:45;22.30;55.00
75819;DHT22;64453;51.944;9.796;2023-05-10T15:04:12;22.10;54.30
75819;DHT22;64453;51.944;9.796;2023-05-10T15:06:42;22.00;54.30
75819;DHT22;64453;51.944;9.796;2023-05-10T15:09:09;22.10;54.40
75819;DHT22;64453;51.944;9.796;2023-05-10T15:11:36;22.00;54.40
75819;DHT22;64453;51.944;9.796;2023-05-10T15:14:03;21.70;54.90
75819;DHT22;64453;51.944;9.796;2023-05-10T15:16:32;21.60;55.60
75819;DHT22;64453;51.944;9.796;2023-05-10T15:18:59;21.80;56.40
75819;DHT22;64453;51.944;9.796;2023-05-10T15:21:26;21.60;56.90
75819;DHT22;64453;51.944;9.796;2023-05-10T15:23:55;21.60;57.60
75819;DHT22;64453;51.944;9.796;2023-05-10T15:26:22;21.00;59.50
75819;DHT22;64453;51.944;9.796;2023-05-10T15:28:51;20.60;61.90
75819;DHT22;64453;51.944;9.796;2023-05-10T15:31:18;20.70;62.50
75819;DHT22;64453;51.944;9.796;2023-05-10T15:33:47;20.90;62.50
75819;DHT22;64453;51.944;9.796;2023-05-10T15:36:15;21.10;61.20
75819;DHT22;64453;51.944;9.796;2023-05-10T15:38:43;21.30;63.20
75819;DHT22;64453;51.944;9.796;2023-05-10T15:41:10;21.50;61.40
75819;DHT22;64453;51.944;9.796;2023-05-10T15:43:37;21.50;60.60
75819;DHT22;64453;51.944;9.796;2023-05-10T15:46:04;21.30;58.40
75819;DHT22;64453;51.944;9.796;2023-05-10T15:48:32;21.50;60.00